Terminal Aerodrome Forecast
Issued by NWS Cleveland, OH

Home | Current Version | Previous Version | Text Only | Print | Product List | Glossary On
Versions: 1 2 3 4 5 6 7 8 9 10 11 12
000
FTUS41 KCLE 130500
TAFTOL
TAF
KTOL 130539Z 1306/1406 22008KT P6SM -SHRA OVC035
      TEMPO 1309/1312 26015KT 3SM -TSRA BR SCT015 OVC025CB
     FM131400 25010KT P6SM VCSH BKN035 OVC100
     FM131700 26012KT P6SM SCT035 BKN200
     FM132300 27006KT P6SM VCSH BKN035=

USA.gov is the U.S. government's official web portal to all federal, state and local government web resources and services.